Time;durP1;ratioP1;P1;durP2;ratioP2;P2;SDS_P1;SDS_P2;PMS_P1;PMS_P2;Temp;Humidity;BMP_temperature;BMP_pressure;BME280_temperature;BME280_humidity;BME280_pressure;Samples;Min_cycle;Max_cycle;Signal;HPM_P1;HPM_P2
2022/04/27 00:01:26;;;;;;;10.65;6.95;;;;;;;7.33;67.81;102264.28;7390778;19;20018;-53
2022/04/27 00:03:55;;;;;;;10.10;6.68;;;;;;;7.22;67.72;102259.13;7391557;19;20041;-58
2022/04/27 00:06:24;;;;;;;11.20;6.90;;;;;;;7.07;68.56;102266.19;7393098;19;20029;-56
2022/04/27 00:08:53;;;;;;;10.35;6.72;;;;;;;7.21;68.48;102276.53;7393277;19;20013;-56
2022/04/27 00:11:43;;;;;;;12.32;6.70;;;;;;;7.31;67.97;102269.50;7392863;19;20019;-55
2022/04/27 00:14:12;;;;;;;12.50;6.50;;;;;;;7.36;67.86;102261.66;7390187;19;20026;-56
2022/04/27 00:16:40;;;;;;;13.40;6.97;;;;;;;7.26;67.91;102260.84;7393248;19;20030;-55
2022/04/27 00:19:09;;;;;;;10.93;6.47;;;;;;;7.37;67.53;102259.03;7392310;19;20053;-53
2022/04/27 00:21:38;;;;;;;11.55;6.43;;;;;;;7.31;68.13;102259.09;7390429;19;20329;-57
2022/04/27 00:24:08;;;;;;;9.98;6.50;;;;;;;7.36;67.15;102259.91;7390970;19;20018;-56
2022/04/27 00:26:40;;;;;;;12.13;6.85;;;;;;;7.22;67.75;102254.81;7392642;19;20014;-57
2022/04/27 00:29:08;;;;;;;12.85;6.53;;;;;;;7.21;68.12;102254.81;7390318;19;20339;-58
2022/04/27 00:31:37;;;;;;;10.55;6.57;;;;;;;7.12;68.30;102249.66;7393488;19;20029;-56
2022/04/27 00:34:06;;;;;;;12.07;7.30;;;;;;;7.18;67.78;102260.03;7390857;19;20025;-53
2022/04/27 00:36:35;;;;;;;10.07;6.70;;;;;;;7.18;67.76;102257.41;7392079;19;20010;-51
2022/04/27 00:39:05;;;;;;;12.35;6.68;;;;;;;7.16;68.14;102262.66;7389733;19;20034;-55
2022/04/27 00:41:34;;;;;;;11.80;6.45;;;;;;;7.16;68.31;102257.44;7388954;19;20006;-50
2022/04/27 00:44:06;;;;;;;10.82;6.70;;;;;;;6.99;68.49;102259.28;7389685;19;20018;-54
2022/04/27 00:46:35;;;;;;;12.65;6.85;;;;;;;7.04;68.81;102262.75;7392469;19;20367;-54
2022/04/27 00:49:04;;;;;;;9.35;6.43;;;;;;;7.08;68.81;102267.06;7390228;19;20015;-58
2022/04/27 00:51:32;;;;;;;12.32;6.60;;;;;;;7.09;68.59;102268.78;7391320;19;20636;-50
2022/04/27 00:54:02;;;;;;;12.65;6.57;;;;;;;7.18;68.76;102273.06;7387161;19;20015;-54
2022/04/27 00:56:31;;;;;;;9.35;6.43;;;;;;;7.11;68.93;102269.66;7390180;19;20021;-51
2022/04/27 00:59:00;;;;;;;13.05;6.57;;;;;;;7.24;68.94;102267.81;7390020;19;20010;-57
2022/04/27 01:01:32;;;;;;;12.77;6.53;;;;;;;7.19;68.85;102274.81;7388091;19;20018;-55
2022/04/27 01:04:01;;;;;;;13.23;7.05;;;;;;;6.99;68.46;102278.41;7388939;19;20046;-53
2022/04/27 01:06:31;;;;;;;12.77;6.78;;;;;;;6.91;69.22;102272.38;7392677;19;20018;-51
2022/04/27 01:09:00;;;;;;;12.27;7.10;;;;;;;7.00;69.46;102267.09;7389682;19;20043;-60
2022/04/27 01:11:29;;;;;;;11.43;7.35;;;;;;;7.03;69.03;102269.69;7393653;19;20053;-55
2022/04/27 01:13:59;;;;;;;15.77;7.15;;;;;;;7.11;69.51;102272.25;7391118;19;20015;-55
2022/04/27 01:16:28;;;;;;;12.65;7.15;;;;;;;6.98;69.42;102276.69;7395984;19;20030;-55
2022/04/27 01:19:00;;;;;;;12.55;7.22;;;;;;;6.89;69.86;102282.81;7398225;19;20026;-54
2022/04/27 01:21:31;;;;;;;12.55;7.63;;;;;;;6.91;69.59;102282.78;7395838;19;20014;-55
2022/04/27 01:24:07;;;;;;;15.00;7.88;;;;;;;6.93;69.68;102281.03;7390484;19;20018;-56
2022/04/27 01:26:37;;;;;;;13.57;7.97;;;;;;;7.06;69.21;102285.31;7390128;19;20014;-53
2022/04/27 01:29:07;;;;;;;12.57;7.50;;;;;;;6.96;69.78;102288.84;7390185;19;20038;-55
2022/04/27 01:31:36;;;;;;;13.80;7.60;;;;;;;6.95;70.12;102287.13;7390285;19;20022;-59
2022/04/27 01:34:05;;;;;;;16.73;8.25;;;;;;;6.88;70.22;102293.25;7388865;19;20014;-52
2022/04/27 01:36:36;;;;;;;11.73;7.72;;;;;;;6.96;70.53;102290.59;7390796;19;20371;-57
2022/04/27 01:39:06;;;;;;;10.60;7.85;;;;;;;6.80;70.31;102295.88;7388945;19;20522;-54
2022/04/27 01:41:36;;;;;;;14.82;8.02;;;;;;;6.89;70.61;102293.22;7387309;19;20021;-55
2022/04/27 01:44:08;;;;;;;12.60;8.07;;;;;;;6.78;70.82;102299.34;7388409;19;20046;-57
2022/04/27 01:46:37;;;;;;;12.75;7.78;;;;;;;6.87;71.13;102299.31;7390579;19;20021;-57
2022/04/27 01:49:05;;;;;;;11.82;8.10;;;;;;;6.94;70.02;102303.63;7389956;19;20015;-54
2022/04/27 01:54:18;;;;;;;13.95;7.97;;;;;;;6.82;71.77;102299.34;7386540;19;20018;-55
2022/04/27 01:56:53;;;;;;;15.18;8.88;;;;;;;6.71;71.19;102301.13;7388381;19;20015;-55
2022/04/27 01:59:22;;;;;;;15.70;7.88;;;;;;;6.69;71.49;102300.25;7387920;19;20015;-58
2022/04/27 02:01:52;;;;;;;19.15;8.32;;;;;;;6.73;71.19;102296.75;7386236;19;20058;-52
2022/04/27 02:04:21;;;;;;;15.23;8.45;;;;;;;6.74;70.99;102291.53;7384897;19;20018;-55
2022/04/27 02:06:52;;;;;;;15.68;7.85;;;;;;;6.70;71.76;102304.59;7388182;19;20014;-54
2022/04/27 02:09:21;;;;;;;13.15;7.97;;;;;;;6.72;71.60;102305.44;7386254;19;20018;-55
2022/04/27 02:11:52;;;;;;;13.13;7.88;;;;;;;6.75;71.23;102305.47;7388497;19;20359;-55
2022/04/27 02:14:21;;;;;;;13.65;8.48;;;;;;;6.73;71.34;102304.56;7385882;19;20111;-60
2022/04/27 02:16:51;;;;;;;19.48;8.80;;;;;;;6.73;71.59;102307.19;7387811;19;20380;-55
2022/04/27 02:19:21;;;;;;;16.77;7.95;;;;;;;6.74;71.31;102317.59;7382996;19;20022;-55
2022/04/27 02:21:53;;;;;;;13.95;8.40;;;;;;;6.69;71.63;102313.28;7386815;19;20437;-56
2022/04/27 02:24:22;;;;;;;15.05;7.95;;;;;;;6.61;72.46;102317.66;7386881;19;20373;-60
2022/04/27 02:26:52;;;;;;;16.52;9.35;;;;;;;6.71;72.10;102317.63;7389276;19;20019;-54
2022/04/27 02:29:21;;;;;;;14.18;8.50;;;;;;;6.75;73.06;102323.69;7386365;19;20400;-53
2022/04/27 02:31:50;;;;;;;15.13;8.27;;;;;;;6.77;72.00;102326.28;7387220;19;20018;-52
2022/04/27 02:34:19;;;;;;;13.43;8.43;;;;;;;6.63;73.17;102323.72;7386903;19;20030;-55
2022/04/27 02:36:48;;;;;;;16.23;8.45;;;;;;;6.49;73.53;102324.66;7387389;19;20011;-56
2022/04/27 02:39:20;;;;;;;13.80;8.18;;;;;;;6.50;73.98;102326.34;7385783;19;20007;-51
2022/04/27 02:41:49;;;;;;;16.48;8.77;;;;;;;6.53;73.77;102323.78;7385333;19;20022;-53
2022/04/27 02:44:18;;;;;;;15.20;8.57;;;;;;;6.52;74.03;102326.34;7385390;19;20018;-55
2022/04/27 02:46:47;;;;;;;13.10;8.55;;;;;;;6.52;74.45;102337.66;7386466;19;20014;-57
2022/04/27 02:52:00;;;;;;;14.63;9.43;;;;;;;6.48;73.87;102335.06;7386039;19;20082;-54
2022/04/27 02:55:03;;;;;;;17.25;9.65;;;;;;;6.40;74.91;102333.34;7387741;19;20043;-56
2022/04/27 02:57:32;;;;;;;15.13;10.00;;;;;;;6.28;75.66;102335.13;7386703;19;20022;-57
2022/04/27 03:00:03;;;;;;;15.07;8.77;;;;;;;6.24;75.65;102331.63;7385265;19;20111;-52
2022/04/27 03:02:32;;;;;;;14.60;9.70;;;;;;;6.23;75.81;102343.78;7383905;19;20491;-53
2022/04/27 03:05:01;;;;;;;18.98;10.25;;;;;;;6.25;75.81;102338.59;7385505;19;20026;-57
2022/04/27 03:07:31;;;;;;;11.90;8.95;;;;;;;6.02;76.52;102339.47;7385970;19;20021;-55
2022/04/27 03:10:00;;;;;;;18.13;9.50;;;;;;;5.91;77.18;102343.78;7385031;19;20002;-56
2022/04/27 03:12:31;;;;;;;16.75;9.55;;;;;;;6.13;76.15;102344.69;7385464;19;20034;-57
2022/04/27 03:15:03;;;;;;;14.82;9.20;;;;;;;6.23;nan;102348.13;7384960;19;20474;-56
2022/04/27 03:17:32;;;;;;;15.98;9.13;;;;;;;6.17;76.34;102350.75;7384579;19;20015;-55
2022/04/27 03:20:04;;;;;;;14.32;9.15;;;;;;;6.20;76.87;102342.91;7384576;19;20030;-54
2022/04/27 03:22:33;;;;;;;22.13;9.35;;;;;;;6.29;75.52;102350.72;7383008;19;20014;-56
2022/04/27 03:25:05;;;;;;;14.03;8.93;;;;;;;6.31;75.38;102345.53;7385105;19;20021;-51
2022/04/27 03:27:37;;;;;;;12.57;8.85;;;;;;;6.28;75.09;102346.38;7385348;19;20037;-51
2022/04/27 03:30:07;;;;;;;14.82;8.80;;;;;;;6.10;75.86;102349.88;7384881;19;20030;-58
2022/04/27 03:32:37;;;;;;;18.10;9.85;;;;;;;6.12;75.73;102350.75;7391999;19;20049;-52
2022/04/27 03:35:07;;;;;;;14.10;9.82;;;;;;;6.30;75.97;102347.25;7392670;19;20355;-50
2022/04/27 03:37:37;;;;;;;24.33;9.57;;;;;;;6.30;74.73;102354.19;7393162;19;20018;-58
2022/04/27 03:40:09;;;;;;;41.35;11.80;;;;;;;6.35;75.82;102352.47;7394044;19;20014;-53
2022/04/27 03:42:41;;;;;;;18.83;9.98;;;;;;;6.57;73.65;102354.13;7392391;19;20501;-51
2022/04/27 03:45:11;;;;;;;12.85;9.82;;;;;;;6.56;73.61;102354.13;7391870;19;20014;-54
2022/04/27 03:47:44;;;;;;;14.35;9.70;;;;;;;6.51;73.63;102351.53;7392519;19;20019;-54
2022/04/27 03:50:13;;;;;;;23.10;10.23;;;;;;;6.45;73.67;102351.56;7391340;19;20015;-59
2022/04/27 03:52:51;;;;;;;16.60;10.13;;;;;;;6.38;73.89;102352.44;7391165;19;20015;-54
2022/04/27 03:55:20;;;;;;;16.27;10.10;;;;;;;6.23;73.97;102354.22;7392052;19;20026;-54
2022/04/27 03:57:53;;;;;;;16.65;10.20;;;;;;;6.19;74.48;102367.19;7392691;19;20057;-55
2022/04/27 04:00:23;;;;;;;16.27;10.05;;;;;;;6.07;74.89;102360.28;7390504;19;20015;-55
2022/04/27 04:03:01;;;;;;;16.40;10.20;;;;;;;5.94;75.10;102374.16;7389875;19;20078;-55
2022/04/27 04:05:30;;;;;;;18.45;10.50;;;;;;;5.78;75.78;102363.72;7392185;19;20015;-54
2022/04/27 04:07:59;;;;;;;16.63;9.18;;;;;;;5.88;75.94;102365.44;7392396;19;20014;-52
2022/04/27 04:10:29;;;;;;;14.07;9.25;;;;;;;6.00;75.08;102363.75;7392233;19;20015;-53
2022/04/27 04:13:02;;;;;;;180.95;21.55;;;;;;;5.99;74.98;102362.00;7392489;19;20029;-52
2022/04/27 04:15:31;;;;;;;15.35;10.93;;;;;;;5.86;75.29;102364.59;7393864;19;20373;-58
2022/04/27 04:18:21;;;;;;;16.52;10.98;;;;;;;5.89;75.49;102369.81;7393610;19;20006;-51
2022/04/27 04:21:02;;;;;;;15.38;10.60;;;;;;;5.74;75.96;102371.53;7391464;19;20054;-55
2022/04/27 04:23:37;;;;;;;13.95;9.90;;;;;;;5.81;75.89;102378.47;7392084;19;20019;-55
2022/04/27 04:28:55;;;;;;;20.10;10.32;;;;;;;5.80;75.82;102382.81;7391014;19;20779;-57
2022/04/27 04:31:24;;;;;;;16.50;10.43;;;;;;;5.79;75.80;102383.66;7393649;19;20053;-56
2022/04/27 04:34:13;;;;;;;15.85;10.15;;;;;;;5.72;76.00;102389.75;7391378;19;20022;-58
2022/04/27 04:36:42;;;;;;;21.00;10.20;;;;;;;5.69;76.28;102387.13;7392148;19;20021;-58
2022/04/27 04:39:12;;;;;;;16.58;10.73;;;;;;;5.61;76.53;102389.69;7389607;19;20014;-56
2022/04/27 04:41:41;;;;;;;20.00;10.52;;;;;;;5.62;76.44;102395.78;7390546;19;20022;-58
2022/04/27 04:44:13;;;;;;;19.33;9.57;;;;;;;5.64;76.63;102394.91;7388751;19;20022;-56
2022/04/27 04:47:00;;;;;;;19.08;11.25;;;;;;;5.65;76.56;102399.25;7392865;19;20025;-56
2022/04/27 04:49:55;;;;;;;20.83;10.95;;;;;;;5.64;76.54;102400.09;7391186;19;20320;-58
2022/04/27 04:52:53;;;;;;;18.05;10.45;;;;;;;5.65;76.82;102412.25;7388608;19;20035;-58
2022/04/27 04:55:44;;;;;;;17.52;10.45;;;;;;;5.66;76.64;102407.91;7391201;19;20042;-57
2022/04/27 04:58:31;;;;;;;16.73;11.15;;;;;;;5.62;76.62;102411.41;7392767;19;20019;-56
2022/04/27 05:01:25;;;;;;;19.42;11.63;;;;;;;5.51;77.41;102413.97;7389882;19;20419;-52
2022/04/27 05:04:17;;;;;;;19.67;10.48;;;;;;;5.69;76.86;102413.16;7387861;19;20177;-55
2022/04/27 05:06:55;;;;;;;16.60;10.65;;;;;;;5.79;76.35;102416.59;7391332;19;20010;-58
2022/04/27 05:09:50;;;;;;;17.38;10.55;;;;;;;5.46;77.22;102423.47;7388818;19;20417;-52
2022/04/27 05:12:54;;;;;;;18.92;10.68;;;;;;;5.49;77.70;102423.50;7387993;19;20022;-58
2022/04/27 05:15:52;;;;;;;14.65;10.70;;;;;;;5.68;77.13;102427.84;7390841;19;20014;-57
2022/04/27 05:18:44;;;;;;;19.10;11.23;;;;;;;5.82;76.17;102427.91;7391921;19;20021;-57
2022/04/27 05:21:36;;;;;;;17.95;10.20;;;;;;;5.87;76.39;102433.09;7390278;19;20475;-56
2022/04/27 05:24:15;;;;;;;22.25;11.27;;;;;;;5.84;76.04;102433.09;7390304;19;20348;-53
2022/04/27 05:27:03;;;;;;;17.75;10.50;;;;;;;5.62;76.81;102434.81;7392586;19;20018;-55
2022/04/27 05:32:43;;;;;;;19.88;11.02;;;;;;;5.76;77.21;102445.22;7389565;19;20042;-55
2022/04/27 05:35:47;;;;;;;28.40;12.38;;;;;;;5.86;76.91;102446.97;7390163;19;20405;-52
2022/04/27 05:38:43;;;;;;;31.45;12.75;;;;;;;6.02;76.64;102460.91;7388860;19;20491;-52
2022/04/27 05:41:23;;;;;;;22.10;11.13;;;;;;;6.24;76.03;102464.41;7392237;19;20138;-53
2022/04/27 05:44:02;;;;;;;17.13;11.00;;;;;;;6.31;75.40;102463.53;7391873;19;20078;-54
2022/04/27 05:46:37;;;;;;;17.73;10.20;;;;;;;6.44;75.42;102463.53;7393836;19;20074;-54
2022/04/27 05:49:15;;;;;;;18.17;10.50;;;;;;;6.55;75.01;102467.84;7390733;19;20018;-54
2022/04/27 05:51:56;;;;;;;17.25;10.57;;;;;;;6.52;75.25;102470.47;7397665;19;20043;-59
2022/04/27 05:54:34;;;;;;;24.52;11.07;;;;;;;6.77;75.82;102477.41;7392152;19;20034;-53
2022/04/27 05:57:13;;;;;;;17.92;9.65;;;;;;;6.83;75.25;102480.84;7395176;19;20363;-54
2022/04/27 05:59:50;;;;;;;17.52;10.35;;;;;;;6.84;74.75;102479.13;7391439;19;20347;-53
2022/04/27 06:02:45;;;;;;;20.92;9.77;;;;;;;6.94;75.02;102488.66;7391854;19;20023;-55
2022/04/27 06:05:16;;;;;;;20.98;10.07;;;;;;;6.83;74.44;102487.78;7390634;19;20098;-53
2022/04/27 06:07:48;;;;;;;17.80;9.93;;;;;;;7.00;74.42;102483.41;7389717;19;20363;-58
2022/04/27 06:10:21;;;;;;;15.75;9.80;;;;;;;7.03;74.29;102493.81;7388020;19;20018;-56
2022/04/27 06:12:57;;;;;;;20.95;10.40;;;;;;;6.91;74.15;102492.13;7390094;19;20468;-56
2022/04/27 06:15:42;;;;;;;14.75;9.50;;;;;;;7.05;74.25;102489.50;7388713;19;20103;-56
2022/04/27 06:18:28;;;;;;;15.30;9.45;;;;;;;7.23;73.15;102498.13;7388040;19;20014;-58
2022/04/27 06:20:57;;;;;;;16.35;9.38;;;;;;;7.29;72.80;102500.69;7388599;19;20033;-56
2022/04/27 06:23:30;;;;;;;18.25;9.57;;;;;;;7.36;72.91;102489.38;7388695;19;20018;-53
2022/04/27 06:25:59;;;;;;;17.63;9.45;;;;;;;7.40;72.90;102485.88;7389870;19;20336;-51
2022/04/27 06:28:28;;;;;;;22.75;10.07;;;;;;;7.57;73.00;102495.41;7390644;19;20078;-52
2022/04/27 06:30:57;;;;;;;16.58;10.73;;;;;;;7.61;72.45;102499.72;7390458;19;20498;-53
2022/04/27 06:33:26;;;;;;;14.40;8.60;;;;;;;7.74;71.78;102497.91;7387783;19;20025;-55
2022/04/27 06:35:55;;;;;;;14.95;9.57;;;;;;;7.74;71.28;102506.59;7390566;19;20015;-56
2022/04/27 06:38:25;;;;;;;16.33;9.88;;;;;;;7.69;70.86;102512.72;7389512;19;20010;-58
2022/04/27 06:41:00;;;;;;;19.17;9.32;;;;;;;7.69;71.08;102510.97;7387518;19;20027;-51
2022/04/27 06:43:38;;;;;;;14.52;10.60;;;;;;;7.91;70.62;102508.28;7386379;19;20018;-57
2022/04/27 06:46:42;;;;;;;20.17;10.50;;;;;;;7.87;70.86;102515.22;7385683;19;20023;-51
2022/04/27 06:49:29;;;;;;;20.88;10.00;;;;;;;7.99;70.42;102514.28;7388849;19;20026;-52
2022/04/27 06:52:27;;;;;;;16.42;10.63;;;;;;;8.21;69.82;102514.16;7386307;19;20145;-55
2022/04/27 06:55:15;;;;;;;18.67;11.20;;;;;;;8.42;70.31;102520.97;7389564;19;20023;-53
2022/04/27 06:58:06;;;;;;;14.70;9.75;;;;;;;8.45;68.94;102529.69;7388720;19;20018;-56
2022/04/27 07:00:35;;;;;;;15.40;9.10;;;;;;;8.40;68.22;102530.56;7386470;19;20014;-55
2022/04/27 07:03:07;;;;;;;;;;;;;;;8.46;67.98;102527.94;7385960;19;20148;-54
2022/04/27 07:05:37;;;;;;;15.43;9.25;;;;;;;8.45;68.31;102529.69;7387148;19;19919;-54
2022/04/27 07:08:07;;;;;;;14.82;8.95;;;;;;;8.67;68.01;102534.75;7386737;19;20026;-55
2022/04/27 07:10:36;;;;;;;21.65;11.75;;;;;;;8.69;67.53;102542.56;7387964;19;20493;-55
2022/04/27 07:13:08;;;;;;;20.38;11.65;;;;;;;8.56;68.05;102536.56;7388164;19;20040;-56
2022/04/27 07:15:38;;;;;;;21.60;11.65;;;;;;;8.55;67.84;102535.69;7388798;19;20018;-58
2022/04/27 07:18:08;;;;;;;15.60;10.75;;;;;;;8.73;66.37;102536.44;7387345;19;20092;-55
2022/04/27 07:20:37;;;;;;;22.30;13.38;;;;;;;8.81;67.09;102550.28;7388754;19;20007;-53
2022/04/27 07:23:06;;;;;;;26.48;13.32;;;;;;;8.89;66.89;102545.00;7388313;19;20023;-57
2022/04/27 07:25:35;;;;;;;30.15;14.38;;;;;;;9.01;66.59;102550.09;7388338;19;20563;-58
2022/04/27 07:28:04;;;;;;;29.42;14.90;;;;;;;9.08;66.56;102554.38;7389102;19;20014;-56
2022/04/27 07:30:36;;;;;;;19.67;12.38;;;;;;;9.09;65.77;102552.66;7387348;19;20019;-56
2022/04/27 07:33:05;;;;;;;17.17;11.18;;;;;;;9.18;64.37;102557.78;7390240;19;20021;-52
2022/04/27 07:35:35;;;;;;;21.25;12.02;;;;;;;9.17;63.58;102550.81;7392651;19;20029;-54
2022/04/27 07:38:05;;;;;;;14.35;9.07;;;;;;;8.96;64.15;102552.75;7389746;19;20484;-52
2022/04/27 07:40:34;;;;;;;11.88;7.05;;;;;;;8.92;62.53;102560.66;7387835;19;20077;-55
2022/04/27 07:43:02;;;;;;;15.48;9.15;;;;;;;9.00;63.91;102564.06;7386380;19;20025;-51
2022/04/27 07:45:31;;;;;;;15.35;8.20;;;;;;;9.11;63.37;102563.94;7388062;19;20014;-51
2022/04/27 07:48:03;;;;;;;16.83;9.38;;;;;;;9.00;63.20;102564.91;7388512;19;20014;-54
2022/04/27 07:50:32;;;;;;;13.40;9.57;;;;;;;9.31;62.96;102564.63;7389088;19;20126;-51
2022/04/27 07:53:01;;;;;;;13.48;9.25;;;;;;;9.52;62.92;102558.25;7388669;19;20029;-56
2022/04/27 07:55:30;;;;;;;15.10;7.28;;;;;;;9.75;60.13;102569.34;7389744;19;20011;-52
2022/04/27 07:57:59;;;;;;;13.45;5.85;;;;;;;9.78;58.07;102564.94;7388848;19;20021;-52
2022/04/27 08:00:29;;;;;;;15.40;6.70;;;;;;;9.83;57.75;102565.75;7386601;19;20369;-51
2022/04/27 08:02:58;;;;;;;10.27;6.13;;;;;;;9.67;58.73;102570.31;7386972;19;20023;-51
2022/04/27 08:05:30;;;;;;;12.10;6.13;;;;;;;9.74;57.42;102567.59;7389366;19;20722;-51
2022/04/27 08:07:59;;;;;;;11.45;4.82;;;;;;;10.07;56.60;102568.91;7388659;19;20015;-51
2022/04/27 08:10:28;;;;;;;9.80;5.63;;;;;;;10.27;55.92;102578.25;7387080;19;20023;-51
2022/04/27 08:12:57;;;;;;;10.55;4.95;;;;;;;10.19;56.01;102570.50;7387834;19;20082;-55
2022/04/27 08:15:27;;;;;;;13.25;5.25;;;;;;;10.27;56.10;102568.63;7386716;19;20107;-52
2022/04/27 08:17:58;;;;;;;15.13;7.38;;;;;;;10.00;56.12;102576.00;7393291;19;20424;-53
2022/04/27 08:23:14;;;;;;;12.02;5.88;;;;;;;10.33;55.84;102579.03;7393964;19;20338;-53
2022/04/27 08:25:43;;;;;;;8.93;5.10;;;;;;;10.59;54.41;102580.41;7394714;19;20013;-51
2022/04/27 08:28:12;;;;;;;10.00;4.68;;;;;;;10.57;52.98;102584.78;7395487;19;20118;-57
2022/04/27 08:30:44;;;;;;;15.32;4.43;;;;;;;10.68;54.24;102587.25;7393941;19;20019;-58
2022/04/27 08:33:14;;;;;;;8.18;4.50;;;;;;;10.70;54.09;102588.97;7394898;19;20030;-54
2022/04/27 08:35:46;;;;;;;8.70;4.90;;;;;;;10.60;53.32;102578.66;7394885;19;20031;-54
2022/04/27 08:38:15;;;;;;;16.92;4.63;;;;;;;10.71;53.13;102581.97;7393024;19;20014;-60
2022/04/27 08:40:46;;;;;;;9.50;4.05;;;;;;;10.62;52.78;102580.34;7394937;19;20022;-56
2022/04/27 08:43:16;;;;;;;10.40;4.28;;;;;;;11.18;53.04;102584.66;7392656;19;20081;-55
2022/04/27 08:45:47;;;;;;;7.85;4.28;;;;;;;11.14;52.09;102589.09;7394690;19;20022;-56
2022/04/27 08:48:18;;;;;;;9.40;4.47;;;;;;;10.88;51.95;102594.78;7394237;19;20484;-55
2022/04/27 08:50:50;;;;;;;8.90;4.90;;;;;;;10.77;52.20;102584.47;7393599;19;20364;-56
2022/04/27 08:53:19;;;;;;;8.88;4.63;;;;;;;11.05;53.23;102589.25;7393113;19;20099;-55
2022/04/27 08:55:51;;;;;;;11.40;4.85;;;;;;;10.67;51.61;102583.75;7393317;19;20502;-56
2022/04/27 08:58:22;;;;;;;9.40;4.95;;;;;;;10.80;53.02;102586.19;7393418;19;20026;-58
2022/04/27 09:00:51;;;;;;;8.60;4.78;;;;;;;10.90;53.14;102585.13;7392250;19;20015;-51
2022/04/27 09:03:25;;;;;;;8.65;5.07;;;;;;;11.40;52.81;102587.72;7358199;19;20014;-59
2022/04/27 09:06:00;;;;;;;10.32;4.97;;;;;;;11.35;51.85;102593.06;7391538;19;20075;-56
2022/04/27 09:08:38;;;;;;;19.35;5.70;;;;;;;11.20;52.44;102594.25;7390195;19;20022;-57
2022/04/27 09:11:15;;;;;;;9.90;5.07;;;;;;;11.12;51.59;102590.00;7391385;19;20018;-58
2022/04/27 09:13:48;;;;;;;15.35;5.00;;;;;;;11.39;51.92;102596.50;7390962;19;20029;-56
2022/04/27 09:16:18;;;;;;;9.68;5.00;;;;;;;11.36;51.62;102593.94;7391922;19;20014;-57
2022/04/27 09:22:04;;;;;;;10.02;5.57;;;;;;;11.17;52.25;102591.66;7393186;19;20019;-53
2022/04/27 09:24:50;;;;;;;9.05;4.50;;;;;;;11.15;52.19;102596.06;7389084;19;20025;-51
2022/04/27 09:27:21;;;;;;;7.57;5.10;;;;;;;11.36;52.04;102600.06;7392173;19;20026;-57
2022/04/27 09:29:58;;;;;;;11.63;4.55;;;;;;;11.43;51.77;102593.81;7389180;19;20122;-57
2022/04/27 09:32:28;;;;;;;9.75;4.32;;;;;;;11.19;51.80;102597.75;7391565;19;20014;-56
2022/04/27 09:35:00;;;;;;;8.32;4.43;;;;;;;11.22;52.17;102596.84;7391519;19;20030;-55
2022/04/27 09:37:39;;;;;;;8.45;4.78;;;;;;;11.14;51.60;102598.72;7391528;19;20024;-53
2022/04/27 09:40:11;;;;;;;7.53;4.53;;;;;;;11.05;52.47;102595.38;7391871;19;20010;-55
2022/04/27 09:42:44;;;;;;;7.00;5.07;;;;;;;11.21;51.72;102600.34;7392018;19;20021;-54
2022/04/27 09:45:18;;;;;;;16.42;5.50;;;;;;;11.01;51.43;102598.06;7391564;19;20021;-50
2022/04/27 09:47:48;;;;;;;18.40;5.70;;;;;;;10.85;51.82;102598.31;7391818;19;20022;-54
2022/04/27 09:50:18;;;;;;;9.65;4.80;;;;;;;11.11;52.31;102604.03;7390731;19;20039;-54
2022/04/27 09:52:50;;;;;;;8.80;4.40;;;;;;;11.06;51.12;102597.09;7390925;19;20128;-52
2022/04/27 09:55:19;;;;;;;10.52;4.63;;;;;;;10.97;51.73;102597.25;7388970;19;20025;-58
2022/04/27 09:57:54;;;;;;;8.02;4.60;;;;;;;11.25;51.63;102596.78;7391416;19;20011;-55
2022/04/27 10:00:25;;;;;;;8.48;4.15;;;;;;;11.67;50.88;102590.72;7389752;19;20495;-54
2022/04/27 10:02:56;;;;;;;11.63;4.80;;;;;;;11.81;50.28;102587.81;7390926;19;20607;-56
2022/04/27 10:05:25;;;;;;;10.55;4.40;;;;;;;12.03;49.96;102591.72;7389183;19;20011;-58
2022/04/27 10:07:57;;;;;;;17.30;4.45;;;;;;;12.27;50.36;102592.09;7390165;19;20034;-56
2022/04/27 10:10:27;;;;;;;16.00;4.80;;;;;;;12.22;48.26;102591.31;7389999;19;20018;-53
2022/04/27 10:12:56;;;;;;;8.93;4.50;;;;;;;12.31;49.38;102598.13;7389659;19;20125;-60
2022/04/27 10:15:25;;;;;;;7.13;4.72;;;;;;;12.51;48.04;102598.53;7389768;19;20030;-56
2022/04/27 10:17:56;;;;;;;8.52;4.07;;;;;;;12.75;47.70;102597.06;7390924;19;20025;-58
2022/04/27 10:20:29;;;;;;;11.32;4.20;;;;;;;12.91;47.44;102592.28;7393101;19;20094;-55
2022/04/27 10:23:12;;;;;;;;;;;;;;;12.91;46.56;102587.03;7390687;19;20011;-55
2022/04/27 10:25:44;;;;;;;6.97;3.67;;;;;;;13.41;46.12;102593.63;7313383;19;19914;-55
2022/04/27 10:28:20;;;;;;;6.55;4.10;;;;;;;13.52;45.71;102591.56;7314420;19;20030;-56
2022/04/27 10:30:49;;;;;;;5.38;4.03;;;;;;;13.49;45.53;102586.38;7391424;19;20038;-55
2022/04/27 10:33:43;;;;;;;5.53;3.80;;;;;;;13.73;44.64;102579.56;7388559;19;20011;-54
2022/04/27 10:36:43;;;;;;;18.70;4.90;;;;;;;13.96;44.41;102585.91;7398314;19;20013;-55
2022/04/27 10:39:26;;;;;;;30.90;5.30;;;;;;;14.12;44.39;102589.78;7395486;19;20031;-54
2022/04/27 10:42:34;;;;;;;13.73;4.15;;;;;;;13.39;45.36;102596.31;7391299;19;20039;-59
2022/04/27 10:45:12;;;;;;;8.05;4.43;;;;;;;13.23;45.39;102589.72;7397582;19;20366;-55
2022/04/27 10:47:45;;;;;;;10.60;4.28;;;;;;;13.09;46.02;102596.19;7398705;19;20018;-54
2022/04/27 10:50:36;;;;;;;6.35;4.10;;;;;;;12.73;47.25;102587.50;7400406;19;20021;-54
2022/04/27 10:53:22;;;;;;;8.77;4.00;;;;;;;12.63;46.67;102584.22;7395548;19;20107;-58
2022/04/27 10:55:54;;;;;;;9.20;3.75;;;;;;;13.00;46.74;102585.91;7402517;19;20017;-55
2022/04/27 10:58:42;;;;;;;4.87;3.40;;;;;;;13.51;45.44;102589.84;7396520;19;20014;-59
2022/04/27 11:01:23;;;;;;;7.70;3.63;;;;;;;13.35;45.34;102580.66;7399072;19;20574;-54
2022/04/27 11:04:08;;;;;;;8.23;4.20;;;;;;;13.48;45.71;102590.81;7390025;19;20017;-57
2022/04/27 11:07:07;;;;;;;7.35;4.25;;;;;;;13.88;44.01;102587.91;7391592;19;20021;-55
2022/04/27 11:10:15;;;;;;;6.43;3.90;;;;;;;13.18;45.98;102584.59;7389788;19;20090;-59
2022/04/27 11:12:46;;;;;;;8.90;5.45;;;;;;;13.00;45.29;102585.91;7390173;19;20106;-58
2022/04/27 11:15:22;;;;;;;34.33;8.15;;;;;;;12.98;46.51;102588.59;7389072;19;20049;-54
2022/04/27 11:18:03;;;;;;;10.63;4.65;;;;;;;13.58;45.36;102575.59;7384829;19;20499;-59
2022/04/27 11:20:34;;;;;;;8.95;3.83;;;;;;;14.00;44.67;102583.13;7392093;19;20010;-59
2022/04/27 11:23:07;;;;;;;7.72;4.10;;;;;;;14.33;43.23;102566.31;7391812;19;20086;-57
2022/04/27 11:25:38;;;;;;;6.40;3.95;;;;;;;14.42;43.76;102573.94;7390216;19;20128;-56
2022/04/27 11:28:08;;;;;;;8.00;4.82;;;;;;;14.46;41.93;102565.00;7392179;19;20014;-56
2022/04/27 11:30:40;;;;;;;11.63;4.40;;;;;;;14.40;42.62;102566.97;7390236;19;20017;-57
2022/04/27 11:33:09;;;;;;;24.75;5.32;;;;;;;14.29;42.84;102564.69;7385291;19;20042;-57
2022/04/27 11:35:42;;;;;;;11.43;4.80;;;;;;;14.65;42.31;102570.56;7386383;19;20513;-53
2022/04/27 11:38:11;;;;;;;7.75;4.88;;;;;;;14.79;42.57;102567.47;7388278;19;20099;-59
2022/04/27 11:40:41;;;;;;;14.23;4.70;;;;;;;15.31;42.20;102566.56;7387531;19;20022;-58
2022/04/27 11:43:10;;;;;;;9.23;4.03;;;;;;;15.40;41.77;102558.28;7387746;19;20095;-58
2022/04/27 11:45:41;;;;;;;14.35;4.13;;;;;;;15.58;40.61;102562.88;7388679;19;20021;-56
2022/04/27 11:48:10;;;;;;;9.95;4.38;;;;;;;15.63;41.05;102557.44;7388623;19;20010;-55
2022/04/27 11:50:41;;;;;;;23.05;4.95;;;;;;;15.37;40.66;102558.41;7387454;19;20018;-55
2022/04/27 11:53:11;;;;;;;16.25;4.68;;;;;;;15.56;40.95;102553.31;7392221;19;20129;-56
2022/04/27 11:55:41;;;;;;;6.47;3.95;;;;;;;15.77;41.03;102556.91;7397025;19;20014;-55
2022/04/27 11:58:10;;;;;;;8.38;3.78;;;;;;;15.69;41.64;102553.72;7394720;19;20021;-59
2022/04/27 12:00:41;;;;;;;8.30;4.82;;;;;;;15.79;39.96;102549.81;7394417;19;20026;-56
2022/04/27 12:03:10;;;;;;;8.73;3.85;;;;;;;15.86;39.80;102551.31;7393434;19;20029;-56
2022/04/27 12:05:40;;;;;;;6.03;3.63;;;;;;;15.70;39.51;102550.13;7391980;19;20025;-57
2022/04/27 12:08:12;;;;;;;13.13;3.50;;;;;;;15.72;38.21;102550.94;7395162;19;20022;-60
2022/04/27 12:10:41;;;;;;;6.78;3.45;;;;;;;15.88;38.45;102549.44;7393677;19;20029;-56